createdAt,value
2023-02-24T00:02:45.204Z,18.63
2023-02-24T00:07:46.943Z,27.52
2023-02-24T00:12:49.352Z,20.67
2023-02-24T00:17:51.180Z,25.67
2023-02-24T00:22:52.912Z,24.40
2023-02-24T00:27:55.768Z,17.67
2023-02-24T00:33:01.338Z,22.02
2023-02-24T00:38:05.636Z,29.85
2023-02-24T00:43:08.874Z,26.05
2023-02-24T00:48:10.753Z,25.17
2023-02-24T00:53:12.560Z,25.00
2023-02-24T00:58:14.406Z,30.88
2023-02-24T01:03:16.384Z,42.47
2023-02-24T01:08:21.443Z,33.45
2023-02-24T01:13:23.287Z,28.05
2023-02-24T01:18:25.205Z,23.55
2023-02-24T01:23:27.406Z,23.48
2023-02-24T01:28:30.107Z,26.60
2023-02-24T01:33:39.350Z,26.42
2023-02-24T01:38:42.267Z,35.72
2023-02-24T01:44:01.962Z,31.08
2023-02-24T01:49:15.861Z,40.50
2023-02-24T01:54:20.877Z,49.78
2023-02-24T01:59:25.678Z,45.03
2023-02-24T02:04:36.482Z,49.08
2023-02-24T02:09:41.579Z,50.72
2023-02-24T02:14:53.174Z,56.90
2023-02-24T02:20:20.000Z,54.70
2023-02-24T02:25:36.103Z,61.85
2023-02-24T02:31:05.572Z,59.47
2023-02-24T02:36:27.031Z,61.90
2023-02-24T02:41:36.342Z,63.85
2023-02-24T02:47:01.988Z,54.90
2023-02-24T02:52:13.824Z,56.80
2023-02-24T02:57:24.967Z,53.72
2023-02-24T03:02:29.763Z,63.78
2023-02-24T03:07:37.704Z,61.95
2023-02-24T03:12:41.431Z,59.38
2023-02-24T03:17:46.103Z,51.17
2023-02-24T03:22:55.152Z,56.67
2023-02-24T03:28:03.794Z,46.30
2023-02-24T03:33:24.794Z,61.03
2023-02-24T03:38:26.659Z,54.72
2023-02-24T03:43:32.231Z,53.60
2023-02-24T03:48:45.054Z,52.33
2023-02-24T03:54:02.426Z,49.67
2023-02-24T03:59:25.335Z,51.97
2023-02-24T04:04:33.427Z,56.60
2023-02-24T04:10:09.291Z,51.63
2023-02-24T04:15:25.733Z,59.97
2023-02-24T04:20:32.050Z,58.15
2023-02-24T04:25:36.492Z,57.78
2023-02-24T04:30:42.224Z,55.40
2023-02-24T04:35:48.158Z,79.10
2023-02-24T04:40:50.261Z,55.30
2023-02-24T04:45:52.032Z,55.50
2023-02-24T04:50:55.170Z,50.28
2023-02-24T04:55:57.073Z,45.42
2023-02-24T05:00:58.858Z,56.38
2023-02-24T05:06:01.059Z,53.78
2023-02-24T05:11:05.859Z,53.42
2023-02-24T05:16:09.160Z,63.45
2023-02-24T05:21:32.525Z,56.63
2023-02-24T05:26:36.977Z,43.63
2023-02-24T05:31:39.098Z,66.65
2023-02-24T05:36:41.068Z,59.72
2023-02-24T05:41:43.408Z,61.72
2023-02-24T05:46:46.988Z,59.33
2023-02-24T05:51:56.679Z,67.00
2023-02-24T05:57:01.096Z,62.00
2023-02-24T06:02:07.868Z,61.00
2023-02-24T06:07:13.819Z,67.90
2023-02-24T06:12:16.840Z,64.15
2023-02-24T06:17:19.476Z,68.80
2023-02-24T06:22:23.287Z,68.35
2023-02-24T06:27:25.653Z,70.32
2023-02-24T06:32:28.043Z,62.40
2023-02-24T06:37:29.982Z,57.53
2023-02-24T06:42:31.738Z,46.72
2023-02-24T06:47:33.490Z,46.92
2023-02-24T06:52:36.370Z,55.63
2023-02-24T06:57:38.115Z,48.30
2023-02-24T07:02:39.900Z,50.85
2023-02-24T07:07:45.834Z,44.08
2023-02-24T07:12:47.578Z,56.38
2023-02-24T07:17:50.722Z,56.58
2023-02-24T07:22:52.906Z,57.22
2023-02-24T07:27:54.629Z,51.92
2023-02-24T07:32:57.349Z,54.88
2023-02-24T07:38:02.079Z,73.93
2023-02-24T07:43:06.392Z,55.50
2023-02-24T07:48:08.353Z,61.55
2023-02-24T07:53:10.114Z,55.70
2023-02-24T07:58:12.006Z,47.58
2023-02-24T08:03:14.002Z,46.45
2023-02-24T08:08:20.892Z,48.92
2023-02-24T08:13:22.815Z,42.20
2023-02-24T08:18:24.683Z,43.35
2023-02-24T08:23:26.674Z,61.22
2023-02-24T08:28:28.455Z,41.28
2023-02-24T08:33:30.516Z,41.83
2023-02-24T08:38:42.216Z,41.35
2023-02-24T08:43:46.413Z,51.53
2023-02-24T08:48:55.568Z,40.80
2023-02-24T08:54:00.733Z,38.90
2023-02-24T08:59:05.800Z,41.53
2023-02-24T09:04:13.077Z,46.15
2023-02-24T09:09:23.457Z,45.03
2023-02-24T09:14:36.282Z,46.45
2023-02-24T09:19:47.957Z,53.83
2023-02-24T09:24:51.199Z,43.40
2023-02-24T09:29:53.047Z,39.83
2023-02-24T09:34:54.787Z,47.67
2023-02-24T09:39:56.540Z,45.80
2023-02-24T09:45:05.229Z,40.25
2023-02-24T09:50:14.100Z,42.70
2023-02-24T09:55:38.754Z,38.20
2023-02-24T10:00:47.904Z,34.33
2023-02-24T10:06:12.104Z,37.28
2023-02-24T10:11:14.660Z,35.50
2023-02-24T10:16:23.958Z,35.63
2023-02-24T10:22:00.389Z,29.10
2023-02-24T10:27:17.569Z,32.88
2023-02-24T10:32:43.552Z,26.42
2023-02-24T10:37:46.035Z,27.52
2023-02-24T10:42:49.719Z,27.77
2023-02-24T10:47:57.313Z,28.15
2023-02-24T10:53:06.628Z,25.75
2023-02-24T10:58:16.096Z,26.75
2023-02-24T11:03:35.933Z,25.15
2023-02-24T11:08:54.377Z,29.08
2023-02-24T11:14:16.920Z,23.50
2023-02-24T11:19:18.686Z,26.80
2023-02-24T11:24:21.508Z,32.30
2023-02-24T11:29:53.700Z,29.90
2023-02-24T11:35:11.661Z,28.83
2023-02-24T11:40:23.064Z,29.52
2023-02-24T11:45:35.027Z,39.65
2023-02-24T11:51:01.912Z,38.05
2023-02-24T11:56:14.127Z,31.88
2023-02-24T12:01:37.745Z,30.35
2023-02-24T12:06:56.808Z,28.23
2023-02-24T12:12:24.443Z,25.58
2023-02-24T12:17:58.016Z,25.70
2023-02-24T12:23:28.422Z,28.25
2023-02-24T12:28:48.686Z,30.92
2023-02-24T12:34:08.581Z,24.83
2023-02-24T12:39:42.343Z,29.02
2023-02-24T12:45:01.073Z,29.88
2023-02-24T12:50:24.451Z,26.45
2023-02-24T12:55:55.280Z,24.58
2023-02-24T13:01:00.076Z,24.10
2023-02-24T13:06:26.752Z,22.15
2023-02-24T13:11:49.980Z,23.52
2023-02-24T13:17:02.426Z,22.67
2023-02-24T13:22:13.273Z,24.75
2023-02-24T13:27:21.661Z,22.42
2023-02-24T13:32:34.330Z,22.13
2023-02-24T13:37:38.657Z,28.40
2023-02-24T13:42:40.687Z,28.50
2023-02-24T13:48:07.269Z,28.88
2023-02-24T13:53:38.193Z,28.60
2023-02-24T13:59:16.901Z,30.10
2023-02-24T14:09:32.266Z,33.35
2023-02-24T14:19:35.938Z,25.98
2023-02-24T14:24:37.706Z,36.45
2023-02-24T14:29:44.127Z,33.42
2023-02-24T14:34:47.969Z,33.45
2023-02-24T14:39:53.201Z,33.88
2023-02-24T14:44:58.059Z,30.48
2023-02-24T14:50:04.560Z,36.53
2023-02-24T14:55:25.932Z,34.42
2023-02-24T15:00:36.162Z,37.03
2023-02-24T15:05:44.912Z,34.72
2023-02-24T15:10:47.008Z,39.50
2023-02-24T15:15:48.896Z,41.95
2023-02-24T15:21:03.780Z,41.63
2023-02-24T15:26:08.796Z,36.97
2023-02-24T15:31:19.517Z,35.10
2023-02-24T15:36:24.639Z,39.45
2023-02-24T15:41:37.440Z,38.35
2023-02-24T15:46:39.285Z,42.35
2023-02-24T15:51:45.197Z,40.20
2023-02-24T15:56:48.653Z,38.20
2023-02-24T16:01:52.137Z,40.42
2023-02-24T16:06:56.496Z,36.22
2023-02-24T16:11:59.921Z,34.72
2023-02-24T16:17:08.813Z,36.40
2023-02-24T16:22:10.863Z,31.58
2023-02-24T16:27:17.280Z,37.17
2023-02-24T16:32:22.292Z,29.40
2023-02-24T16:37:28.556Z,35.33
2023-02-24T16:42:30.352Z,48.10
2023-02-24T16:47:34.241Z,38.20
2023-02-24T16:52:36.001Z,39.22
2023-02-24T16:57:37.728Z,46.40
2023-02-24T17:02:41.931Z,45.88
2023-02-24T17:07:43.664Z,40.13
2023-02-24T17:12:45.791Z,48.60
2023-02-24T17:17:47.652Z,37.70
2023-02-24T17:22:49.503Z,40.88
2023-02-24T17:27:52.876Z,39.13
2023-02-24T17:32:55.215Z,45.13
2023-02-24T17:37:57.234Z,44.83
2023-02-24T17:42:59.031Z,50.40
2023-02-24T17:48:01.592Z,49.03
2023-02-24T17:53:03.385Z,44.15
2023-02-24T17:58:05.216Z,39.78
2023-02-24T18:03:07.055Z,34.97
2023-02-24T18:08:08.867Z,45.60
2023-02-24T18:13:10.597Z,46.38
2023-02-24T18:18:12.371Z,40.00
2023-02-24T18:23:15.045Z,41.20
2023-02-24T18:28:17.174Z,35.90
2023-02-24T18:33:19.305Z,34.38
2023-02-24T18:38:21.179Z,38.17
2023-02-24T18:43:22.950Z,42.63
2023-02-24T18:48:25.096Z,41.35
2023-02-24T18:53:29.662Z,36.70
2023-02-24T18:58:31.607Z,43.00
2023-02-24T19:03:33.324Z,36.38
2023-02-24T19:08:37.723Z,38.15
2023-02-24T19:13:39.792Z,39.13
2023-02-24T19:18:41.700Z,36.78
2023-02-24T19:23:43.509Z,30.85
2023-02-24T19:28:45.599Z,34.30
2023-02-24T19:34:03.070Z,34.22
2023-02-24T19:39:08.578Z,38.95
2023-02-24T19:44:10.897Z,31.40
2023-02-24T19:49:12.711Z,38.30
2023-02-24T19:54:14.647Z,28.92
2023-02-24T19:59:17.186Z,49.47
2023-02-24T20:04:19.098Z,30.25
2023-02-24T20:09:21.468Z,30.35
2023-02-24T20:14:23.274Z,28.50
2023-02-24T20:19:25.053Z,47.50
2023-02-24T20:24:27.142Z,34.85
2023-02-24T20:29:29.321Z,28.63
2023-02-24T20:34:31.498Z,42.95
2023-02-24T20:39:33.717Z,36.45
2023-02-24T20:44:35.478Z,32.78
2023-02-24T20:49:37.350Z,30.63
2023-02-24T20:54:39.229Z,24.50
2023-02-24T20:59:47.285Z,32.85
2023-02-24T21:04:56.637Z,29.60
2023-02-24T21:09:58.652Z,30.90
2023-02-24T21:15:00.608Z,29.58
2023-02-24T21:20:02.422Z,30.52
2023-02-24T21:25:04.608Z,29.15
2023-02-24T21:30:08.936Z,34.45
2023-02-24T21:35:10.785Z,27.88
2023-02-24T21:40:13.115Z,29.75
2023-02-24T21:45:15.077Z,42.30
2023-02-24T21:50:18.093Z,27.65
2023-02-24T21:55:20.004Z,24.60
2023-02-24T22:00:24.068Z,21.45
2023-02-24T22:05:26.826Z,22.52
2023-02-24T22:10:28.644Z,23.33
2023-02-24T22:15:30.415Z,20.45
2023-02-24T22:20:32.178Z,11.20
2023-02-24T22:25:36.163Z,9.80
2023-02-24T22:30:37.973Z,4.97
2023-02-24T22:35:39.839Z,3.80
2023-02-24T22:40:42.043Z,2.42
2023-02-24T22:45:43.878Z,3.08
2023-02-24T22:50:45.619Z,3.53
2023-02-24T22:55:48.188Z,3.60
2023-02-24T23:00:50.669Z,3.17
2023-02-24T23:06:01.477Z,3.45
2023-02-24T23:11:12.349Z,2.15
2023-02-24T23:16:18.590Z,5.45
2023-02-24T23:21:24.933Z,5.05
2023-02-24T23:26:35.390Z,2.95
2023-02-24T23:31:38.149Z,1.75
2023-02-24T23:36:43.485Z,5.25
2023-02-24T23:41:45.419Z,2.70
2023-02-24T23:46:47.248Z,2.40
2023-02-24T23:51:49.257Z,4.15
2023-02-24T23:56:51.009Z,2.55
